Time;durP1;ratioP1;P1;durP2;ratioP2;P2;SDS_P1;SDS_P2;PMS_P1;PMS_P2;Temp;Humidity;BMP_temperature;BMP_pressure;BME280_temperature;BME280_humidity;BME280_pressure;Samples;Min_cycle;Max_cycle;Signal;HPM_P1;HPM_P2
2023/06/01 00:02:16;;;;;;;11.20;5.70;;;15.50;74.70;;;;;;4823060;29;20037;-56
2023/06/01 00:04:42;;;;;;;10.50;6.03;;;15.40;99.90;;;;;;4823400;29;20042;-53
2023/06/01 00:07:10;;;;;;;16.20;6.60;;;15.40;1.00;;;;;;4823438;29;20057;-56
2023/06/01 00:09:36;;;;;;;12.63;6.80;;;15.30;99.90;;;;;;4823714;29;20494;-55
2023/06/01 00:12:02;;;;;;;7.50;5.82;;;15.30;1.00;;;;;;4823269;29;20058;-55
2023/06/01 00:14:28;;;;;;;13.50;7.65;;;15.20;39.00;;;;;;4823131;29;20050;-57
2023/06/01 00:16:55;;;;;;;15.25;7.07;;;15.10;1.00;;;;;;4822913;29;20042;-55
2023/06/01 00:19:21;;;;;;;10.40;6.60;;;15.10;8.60;;;;;;4823197;29;20113;-56
2023/06/01 00:21:47;;;;;;;9.40;5.95;;;15.10;17.10;;;;;;4823118;29;20105;-58
2023/06/01 00:24:13;;;;;;;10.38;6.55;;;15.00;99.90;;;;;;4823167;29;20603;-57
2023/06/01 00:26:38;;;;;;;11.80;6.45;;;15.00;99.90;;;;;;4823092;29;20054;-58
2023/06/01 00:29:04;;;;;;;10.88;6.05;;;15.00;1.00;;;;;;4822960;29;20530;-54
2023/06/01 00:31:29;;;;;;;19.63;6.18;;;15.00;99.90;;;;;;4823235;29;20096;-56
2023/06/01 00:33:55;;;;;;;15.10;6.40;;;15.00;47.80;;;;;;4822882;29;20035;-57
2023/06/01 00:36:21;;;;;;;16.58;6.90;;;15.00;9.70;;;;;;4823239;29;20046;-57
2023/06/01 00:38:47;;;;;;;20.67;6.22;;;14.90;1.00;;;;;;4822846;29;20058;-55
2023/06/01 00:41:12;;;;;;;11.85;6.70;;;14.90;1.00;;;;;;4823043;29;20023;-56
2023/06/01 00:43:38;;;;;;;13.45;7.85;;;14.90;99.90;;;;;;4822788;29;20370;-55
2023/06/01 00:46:05;;;;;;;15.63;8.10;;;14.90;99.90;;;;;;4822769;29;20038;-56
2023/06/01 00:48:30;;;;;;;22.48;6.75;;;14.80;99.90;;;;;;4822996;29;20026;-57
2023/06/01 00:50:58;;;;;;;13.57;7.47;;;14.80;99.90;;;;;;4822559;29;20122;-56
2023/06/01 00:53:25;;;;;;;11.85;6.72;;;14.80;99.90;;;;;;4822738;29;20027;-53
2023/06/01 00:55:51;;;;;;;13.05;6.38;;;14.70;99.90;;;;;;4822615;29;20026;-55
2023/06/01 00:58:16;;;;;;;11.57;7.43;;;14.70;99.90;;;;;;4836714;29;20373;-55
2023/06/01 01:00:42;;;;;;;13.88;7.32;;;14.70;1.00;;;;;;4823033;29;20535;-56
2023/06/01 01:03:09;;;;;;;16.35;7.07;;;14.70;1.00;;;;;;4822657;29;20044;-54
2023/06/01 01:05:37;;;;;;;17.92;8.95;;;14.80;1.00;;;;;;4823015;29;20030;-56
2023/06/01 01:08:03;;;;;;;10.93;7.07;;;14.70;1.00;;;;;;4822632;29;20035;-56
2023/06/01 01:10:32;;;;;;;16.25;7.88;;;14.50;99.90;;;;;;4821479;29;20019;-57
2023/06/01 01:13:17;;;;;;;9.45;6.70;;;14.50;99.90;;;;;;4824739;29;20060;-55
2023/06/01 01:16:01;;;;;;;14.65;7.45;;;14.30;99.90;;;;;;4826464;29;20054;-56
2023/06/01 01:18:42;;;;;;;10.60;7.30;;;14.20;99.90;;;;;;4826400;29;20030;-54
2023/06/01 01:21:22;;;;;;;8.93;6.03;;;14.10;99.90;;;;;;4826188;29;20073;-56
2023/06/01 01:24:26;;;;;;;8.05;6.55;;;14.10;99.90;;;;;;4826043;29;20375;-54
2023/06/01 01:27:24;;;;;;;13.23;7.15;;;14.10;99.90;;;;;;4751462;30;20078;-54
2023/06/01 01:29:54;;;;;;;13.23;7.40;;;14.00;99.90;;;;;;4751911;30;20040;-54
2023/06/01 01:32:23;;;;;;;15.68;8.07;;;13.90;99.90;;;;;;4804544;29;20041;-56
2023/06/01 01:34:51;;;;;;;18.45;7.90;;;13.90;99.90;;;;;;4825620;29;20039;-54
2023/06/01 01:37:16;;;;;;;11.10;7.90;;;13.80;99.90;;;;;;4825751;29;20385;-53
2023/06/01 01:39:42;;;;;;;11.88;7.75;;;13.70;99.90;;;;;;4825840;29;20011;-53
2023/06/01 01:42:08;;;;;;;11.35;7.57;;;13.60;99.90;;;;;;4825408;29;20098;-55
2023/06/01 01:44:34;;;;;;;15.88;8.43;;;13.50;99.90;;;;;;4825760;29;20094;-55
2023/06/01 01:47:06;;;;;;;11.45;7.43;;;13.40;1.00;;;;;;4824926;29;20042;-57
2023/06/01 01:49:41;;;;;;;11.98;7.63;;;13.30;99.90;;;;;;4825302;29;20560;-53
2023/06/01 01:52:17;;;;;;;10.73;7.47;;;13.30;1.00;;;;;;4825369;29;20041;-57
2023/06/01 01:54:45;;;;;;;16.35;7.00;;;13.20;1.00;;;;;;4825478;29;20117;-56
2023/06/01 01:57:13;;;;;;;13.63;7.95;;;13.00;1.00;;;;;;4825293;29;20053;-56
2023/06/01 01:59:41;;;;;;;16.02;7.57;;;12.90;1.00;;;;;;4825470;29;20026;-57
2023/06/01 02:02:08;;;;;;;13.20;7.18;;;12.80;1.00;;;;;;4825381;29;20033;-57
2023/06/01 02:04:41;;;;;;;15.18;8.07;;;12.80;1.00;;;;;;4825523;29;20102;-57
2023/06/01 02:07:07;;;;;;;9.15;7.63;;;12.80;1.00;;;;;;4825042;29;20121;-57
2023/06/01 02:09:33;;;;;;;15.68;7.90;;;12.80;1.00;;;;;;4825244;29;20046;-57
2023/06/01 02:11:59;;;;;;;12.40;8.13;;;12.80;1.00;;;;;;4825174;29;20041;-56
2023/06/01 02:14:25;;;;;;;17.05;8.57;;;12.80;1.00;;;;;;4825358;29;20076;-55
2023/06/01 02:16:50;;;;;;;10.82;6.75;;;12.70;1.00;;;;;;4825051;29;20470;-55
2023/06/01 02:19:17;;;;;;;22.52;7.85;;;12.60;1.00;;;;;;4825060;29;20069;-52
2023/06/01 02:21:43;;;;;;;21.70;8.77;;;12.60;1.00;;;;;;4824937;29;20026;-56
2023/06/01 02:24:08;;;;;;;12.85;8.73;;;12.50;1.00;;;;;;4824181;29;20190;-56
2023/06/01 02:26:35;;;;;;;12.63;8.18;;;12.50;1.00;;;;;;4825003;29;20117;-54
2023/06/01 02:29:07;;;;;;;15.80;8.35;;;12.50;1.00;;;;;;4824913;29;20035;-56
2023/06/01 02:31:36;;;;;;;14.82;8.23;;;12.40;1.00;;;;;;4824749;29;20487;-54
2023/06/01 02:34:02;;;;;;;13.95;8.25;;;12.30;1.00;;;;;;4824697;29;20037;-52
2023/06/01 02:36:31;;;;;;;15.85;8.57;;;12.20;1.00;;;;;;4824756;29;20031;-57
2023/06/01 02:38:57;;;;;;;20.75;8.35;;;12.10;1.00;;;;;;4824568;29;20045;-57
2023/06/01 02:41:24;;;;;;;15.77;8.13;;;12.10;1.00;;;;;;4824687;29;20022;-57
2023/06/01 02:43:51;;;;;;;13.63;8.05;;;12.20;1.00;;;;;;4824485;29;20113;-57
2023/06/01 02:46:18;;;;;;;22.65;8.30;;;12.20;1.00;;;;;;4824528;29;20053;-57
2023/06/01 02:48:44;;;;;;;20.00;9.43;;;12.20;1.00;;;;;;4824634;29;20030;-56
2023/06/01 02:51:10;;;;;;;16.45;9.07;;;12.30;1.00;;;;;;4824443;29;20128;-55
2023/06/01 02:53:36;;;;;;;14.75;8.50;;;12.20;1.00;;;;;;4824336;29;20126;-56
2023/06/01 02:56:01;;;;;;;11.52;7.63;;;12.20;1.00;;;;;;4824257;29;20504;-56
2023/06/01 02:58:29;;;;;;;17.88;8.13;;;12.20;1.00;;;;;;4824430;29;20030;-56
2023/06/01 03:00:57;;;;;;;17.52;8.10;;;12.20;1.00;;;;;;4824534;29;20628;-56
2023/06/01 03:03:23;;;;;;;14.48;9.00;;;12.20;1.00;;;;;;4824632;29;20038;-55
2023/06/01 03:05:49;;;;;;;25.00;8.43;;;12.20;1.00;;;;;;4824437;29;20103;-55
2023/06/01 03:08:16;;;;;;;20.42;8.30;;;12.10;1.00;;;;;;4824621;29;20038;-53
2023/06/01 03:10:42;;;;;;;11.48;8.40;;;12.10;1.00;;;;;;4824329;29;20118;-57
2023/06/01 03:13:08;;;;;;;11.38;8.05;;;12.10;1.00;;;;;;4824276;29;20125;-56
2023/06/01 03:15:33;;;;;;;18.05;8.30;;;12.00;1.00;;;;;;4824007;29;20032;-55
2023/06/01 03:18:00;;;;;;;16.27;7.95;;;11.90;1.00;;;;;;4824173;29;20087;-58
2023/06/01 03:20:26;;;;;;;12.32;7.88;;;11.90;1.00;;;;;;4824239;29;20030;-56
2023/06/01 03:22:52;;;;;;;23.55;8.77;;;11.80;1.00;;;;;;4824173;29;20035;-52
2023/06/01 03:25:18;;;;;;;10.80;7.75;;;11.80;1.00;;;;;;4823964;29;20082;-57
2023/06/01 03:27:44;;;;;;;13.18;8.27;;;11.80;1.00;;;;;;4838226;29;20550;-56
2023/06/01 03:30:11;;;;;;;13.82;8.65;;;11.80;1.00;;;;;;4823951;29;20370;-54
2023/06/01 03:32:37;;;;;;;17.20;8.65;;;11.80;1.00;;;;;;4824111;29;20027;-54
2023/06/01 03:35:04;;;;;;;19.48;8.05;;;11.70;1.00;;;;;;4837519;29;20027;-55
2023/06/01 03:37:30;;;;;;;12.77;9.65;;;11.70;6.70;;;;;;4823381;29;20030;-57
2023/06/01 03:39:55;;;;;;;16.50;9.02;;;11.70;11.40;;;;;;4823844;29;20026;-53
2023/06/01 03:42:21;;;;;;;12.00;7.78;;;11.80;10.90;;;;;;4823480;29;20026;-56
2023/06/01 03:44:47;;;;;;;14.05;7.72;;;11.80;4.10;;;;;;4823892;29;20455;-54
2023/06/01 03:47:14;;;;;;;15.38;9.07;;;11.90;1.00;;;;;;4823555;29;20030;-54
2023/06/01 03:49:39;;;;;;;12.63;8.40;;;11.90;5.10;;;;;;4823661;29;20023;-55
2023/06/01 03:52:06;;;;;;;15.85;6.97;;;12.00;1.00;;;;;;4823559;29;20045;-57
2023/06/01 03:54:31;;;;;;;21.95;9.90;;;12.10;1.00;;;;;;4823588;29;20034;-54
2023/06/01 03:56:57;;;;;;;23.80;9.65;;;12.10;1.00;;;;;;4823266;29;20026;-56
2023/06/01 03:59:24;;;;;;;14.38;7.57;;;12.20;1.00;;;;;;4823741;29;20060;-57
2023/06/01 04:01:49;;;;;;;14.05;8.75;;;12.30;1.00;;;;;;4823491;29;20018;-54
2023/06/01 04:04:16;;;;;;;13.70;7.95;;;12.40;1.00;;;;;;4823781;29;20709;-57
2023/06/01 04:06:45;;;;;;;16.45;7.97;;;12.50;1.00;;;;;;4823569;29;20022;-57
2023/06/01 04:09:11;;;;;;;12.93;8.00;;;12.60;1.00;;;;;;4823454;29;20023;-56
2023/06/01 04:11:39;;;;;;;11.40;7.25;;;12.60;1.00;;;;;;4823208;29;20107;-55
2023/06/01 04:14:05;;;;;;;18.58;7.78;;;12.60;1.00;;;;;;4823479;29;20378;-52
2023/06/01 04:16:31;;;;;;;16.67;7.65;;;12.60;1.00;;;;;;4823476;29;20029;-56
2023/06/01 04:18:59;;;;;;;9.63;7.05;;;12.70;1.00;;;;;;4823277;29;20027;-56
2023/06/01 04:21:25;;;;;;;11.65;7.35;;;12.80;1.00;;;;;;4822931;29;20169;-57
2023/06/01 04:23:51;;;;;;;15.10;7.60;;;12.80;1.00;;;;;;4822789;29;20045;-57
2023/06/01 04:26:18;;;;;;;12.00;7.60;;;12.70;1.00;;;;;;4822845;29;20042;-56
2023/06/01 04:28:44;;;;;;;13.05;8.27;;;12.70;1.00;;;;;;4823039;29;20031;-52
2023/06/01 04:31:16;;;;;;;12.65;7.65;;;12.70;1.00;;;;;;4822997;29;20118;-56
2023/06/01 04:33:44;;;;;;;10.88;7.60;;;12.80;1.00;;;;;;4823010;29;20019;-53
2023/06/01 04:36:13;;;;;;;9.93;7.60;;;12.80;1.00;;;;;;4823002;29;20034;-57
2023/06/01 04:38:41;;;;;;;12.88;8.13;;;12.90;1.00;;;;;;4822238;29;20030;-54
2023/06/01 04:41:09;;;;;;;16.23;8.10;;;12.80;1.00;;;;;;4822850;29;20054;-57
2023/06/01 04:43:39;;;;;;;10.23;7.88;;;12.80;1.00;;;;;;4823172;29;20034;-54
2023/06/01 04:46:05;;;;;;;14.90;7.90;;;13.00;1.00;;;;;;4822912;29;20490;-56
2023/06/01 04:48:31;;;;;;;20.42;9.13;;;13.20;1.00;;;;;;4822888;29;20031;-55
2023/06/01 04:50:58;;;;;;;12.85;8.45;;;13.40;1.00;;;;;;4822913;29;20459;-53
2023/06/01 04:53:25;;;;;;;16.92;8.73;;;13.50;1.00;;;;;;4836594;29;20034;-55
2023/06/01 04:55:50;;;;;;;16.85;9.43;;;13.70;1.00;;;;;;4822824;29;20147;-53
2023/06/01 04:58:17;;;;;;;18.20;8.23;;;13.80;1.00;;;;;;4822929;29;20109;-56
2023/06/01 05:00:42;;;;;;;17.58;8.38;;;14.00;1.00;;;;;;4822796;29;20059;-58
2023/06/01 05:03:08;;;;;;;19.13;7.70;;;14.30;1.00;;;;;;4822609;29;20026;-55
2023/06/01 05:05:34;;;;;;;16.35;7.38;;;14.50;1.00;;;;;;4822823;29;20420;-53
2023/06/01 05:07:59;;;;;;;19.75;6.85;;;14.70;1.00;;;;;;4822672;29;20084;-55
2023/06/01 05:10:25;;;;;;;15.55;7.18;;;14.90;99.90;;;;;;4822725;29;20035;-54
2023/06/01 05:12:51;;;;;;;13.13;6.35;;;15.00;99.90;;;;;;4822583;29;20467;-57
2023/06/01 05:15:17;;;;;;;12.90;6.60;;;15.20;99.90;;;;;;4822595;29;20110;-55
2023/06/01 05:17:43;;;;;;;13.43;6.75;;;15.40;99.90;;;;;;4836682;29;20035;-53
2023/06/01 05:20:11;;;;;;;17.48;8.35;;;15.40;1.00;;;;;;4822534;29;20095;-58
2023/06/01 05:22:37;;;;;;;11.70;5.63;;;15.50;54.20;;;;;;4822470;29;20034;-55
2023/06/01 05:25:05;;;;;;;16.35;6.18;;;15.60;1.00;;;;;;4822096;29;20062;-57
2023/06/01 05:27:31;;;;;;;9.45;6.15;;;15.60;99.90;;;;;;4822352;29;20114;-58
2023/06/01 05:29:56;;;;;;;13.98;7.78;;;15.60;99.90;;;;;;4822501;29;20631;-57
2023/06/01 05:32:22;;;;;;;15.13;6.57;;;15.70;99.90;;;;;;4822532;29;20026;-56
2023/06/01 05:34:47;;;;;;;11.98;5.45;;;15.80;99.90;;;;;;4822495;29;20046;-58
2023/06/01 05:37:13;;;;;;;10.90;6.88;;;15.90;99.90;;;;;;4822322;29;20038;-55
2023/06/01 05:39:57;;;;;;;16.00;5.82;;;16.00;1.00;;;;;;4822295;29;20035;-56
2023/06/01 05:42:23;;;;;;;17.98;7.00;;;16.10;1.00;;;;;;4822413;29;20029;-59
2023/06/01 05:44:48;;;;;;;13.65;6.43;;;16.10;1.00;;;;;;4822348;29;20031;-58
2023/06/01 05:47:14;;;;;;;11.50;6.80;;;16.20;99.90;;;;;;4822405;29;20118;-57
2023/06/01 05:49:40;;;;;;;17.88;6.97;;;16.30;1.00;;;;;;4822272;29;20117;-57
2023/06/01 05:52:06;;;;;;;11.73;6.30;;;16.30;1.00;;;;;;4822296;29;20111;-59
2023/06/01 05:54:31;;;;;;;16.15;5.85;;;16.40;1.00;;;;;;4822259;29;20186;-55
2023/06/01 05:56:57;;;;;;;10.02;6.90;;;16.60;1.00;;;;;;4822272;29;20030;-57
2023/06/01 05:59:23;;;;;;;11.52;5.85;;;16.60;99.90;;;;;;4823312;29;20030;-58
2023/06/01 06:01:48;;;;;;;13.18;5.82;;;16.60;1.00;;;;;;4825466;29;20038;-57
2023/06/01 06:04:35;;;;;;;11.38;6.32;;;16.70;99.90;;;;;;4825364;29;20038;-56
2023/06/01 06:07:01;;;;;;;12.07;6.13;;;16.70;1.00;;;;;;4825146;29;20029;-55
2023/06/01 06:09:27;;;;;;;20.95;8.15;;;16.80;99.90;;;;;;4825320;29;20026;-57
2023/06/01 06:12:30;;;;;;;13.90;6.57;;;16.90;99.90;;;;;;4825152;29;20035;-56
2023/06/01 06:14:55;;;;;;;14.00;8.00;;;17.10;22.40;;;;;;4839059;29;20486;-58
2023/06/01 06:17:21;;;;;;;13.43;6.85;;;17.10;99.90;;;;;;4825299;29;20131;-56
2023/06/01 06:19:48;;;;;;;15.65;6.53;;;17.20;99.90;;;;;;4825083;29;20155;-59
2023/06/01 06:22:14;;;;;;;18.90;6.50;;;17.30;1.00;;;;;;4825135;29;20062;-55
2023/06/01 06:24:41;;;;;;;12.57;8.10;;;17.30;1.00;;;;;;4825073;29;20061;-56
2023/06/01 06:27:06;;;;;;;10.57;6.70;;;17.40;99.90;;;;;;4813558;29;20035;-54
2023/06/01 06:29:32;;;;;;;16.80;7.68;;;17.60;99.90;;;;;;4807090;29;20091;-56
2023/06/01 06:31:58;;;;;;;19.80;8.43;;;17.60;99.90;;;;;;4806867;29;20041;-58
2023/06/01 06:34:24;;;;;;;18.40;7.45;;;17.70;1.00;;;;;;4806865;29;20109;-54
2023/06/01 06:36:49;;;;;;;14.38;7.15;;;17.80;1.00;;;;;;4806828;29;20455;-59
2023/06/01 06:39:15;;;;;;;14.95;6.32;;;17.80;99.90;;;;;;4806612;29;20038;-58
2023/06/01 06:41:42;;;;;;;14.23;7.70;;;17.90;99.90;;;;;;4806812;29;20088;-60
2023/06/01 06:44:08;;;;;;;22.63;6.80;;;18.00;99.90;;;;;;4806468;29;20479;-59
2023/06/01 06:46:34;;;;;;;13.23;6.90;;;18.10;99.90;;;;;;4806642;29;20046;-59
2023/06/01 06:48:59;;;;;;;9.63;5.88;;;18.20;1.00;;;;;;4806633;29;20035;-58
2023/06/01 06:51:25;;;;;;;11.02;6.38;;;18.30;99.90;;;;;;4806574;29;20510;-59
2023/06/01 06:53:51;;;;;;;11.43;6.95;;;18.30;93.20;;;;;;4806273;29;20096;-60
2023/06/01 06:56:17;;;;;;;9.38;5.97;;;18.50;99.90;;;;;;4806654;29;20027;-60
2023/06/01 06:58:43;;;;;;;21.77;6.75;;;18.50;89.10;;;;;;4806290;29;20027;-59
2023/06/01 07:01:10;;;;;;;8.00;5.93;;;18.50;99.90;;;;;;4806286;29;20034;-58
2023/06/01 07:03:37;;;;;;;18.17;6.45;;;18.60;99.90;;;;;;4806608;29;20410;-59
2023/06/01 07:06:02;;;;;;;19.52;7.18;;;18.80;99.90;;;;;;4820060;29;20697;-58
2023/06/01 07:08:28;;;;;;;18.45;7.30;;;18.90;99.90;;;;;;4806308;29;20039;-59
2023/06/01 07:10:56;;;;;;;12.05;7.38;;;18.90;99.90;;;;;;4805840;29;20031;-60
2023/06/01 07:13:22;;;;;;;11.52;6.28;;;19.10;99.90;;;;;;4806150;29;20031;-60
2023/06/01 07:15:47;;;;;;;10.68;6.18;;;19.20;77.40;;;;;;4806058;29;20109;-59
2023/06/01 07:18:13;;;;;;;10.85;6.65;;;19.30;92.70;;;;;;4806139;29;20122;-59
2023/06/01 07:20:39;;;;;;;11.35;6.53;;;19.20;1.00;;;;;;4806118;29;20111;-58
2023/06/01 07:23:04;;;;;;;15.70;7.45;;;19.30;1.00;;;;;;4806106;29;20458;-60
2023/06/01 07:25:30;;;;;;;16.40;7.45;;;19.50;1.00;;;;;;4805882;29;20054;-60
2023/06/01 07:27:56;;;;;;;16.50;7.15;;;19.50;16.80;;;;;;4805705;29;20087;-59
2023/06/01 07:30:22;;;;;;;21.17;7.00;;;19.50;99.90;;;;;;4805815;29;20063;-58
2023/06/01 07:32:48;;;;;;;10.93;6.32;;;19.60;1.00;;;;;;4805440;29;20035;-56
2023/06/01 07:35:13;;;;;;;11.45;6.78;;;19.70;99.90;;;;;;4805698;29;20034;-57
2023/06/01 07:37:40;;;;;;;12.10;6.68;;;19.80;99.90;;;;;;4805782;29;20019;-58
2023/06/01 07:40:07;;;;;;;16.58;7.68;;;19.90;99.90;;;;;;4805496;29;20034;-59
2023/06/01 07:42:33;;;;;;;23.13;8.20;;;19.90;99.90;;;;;;4805736;29;20046;-58
2023/06/01 07:44:59;;;;;;;8.85;6.75;;;20.10;99.90;;;;;;4805611;29;20035;-57
2023/06/01 07:47:25;;;;;;;12.43;7.45;;;20.20;99.90;;;;;;4805563;29;20034;-59
2023/06/01 07:49:51;;;;;;;14.45;6.53;;;20.30;99.90;;;;;;4805466;29;20160;-58
2023/06/01 07:52:17;;;;;;;10.18;6.50;;;20.40;99.90;;;;;;4819437;29;20126;-57
2023/06/01 07:54:43;;;;;;;14.30;7.35;;;20.60;99.90;;;;;;4805486;29;20247;-58
2023/06/01 07:57:08;;;;;;;17.88;7.65;;;20.70;99.90;;;;;;4805192;29;20027;-58
2023/06/01 07:59:34;;;;;;;14.00;7.07;;;20.80;56.80;;;;;;4805336;29;20554;-58
2023/06/01 08:02:00;;;;;;;24.25;7.45;;;20.80;99.90;;;;;;4805429;29;20030;-59
2023/06/01 08:04:27;;;;;;;26.83;18.20;;;21.00;99.90;;;;;;4805276;29;20092;-59
2023/06/01 08:06:52;;;;;;;10.50;8.10;;;21.00;1.00;;;;;;4805251;29;20022;-58
2023/06/01 08:09:21;;;;;;;12.65;7.13;;;21.00;1.00;;;;;;4805085;29;20494;-59
2023/06/01 08:11:47;;;;;;;19.13;8.35;;;21.10;1.00;;;;;;4805192;29;20031;-58
2023/06/01 08:14:13;;;;;;;12.50;7.35;;;21.10;1.00;;;;;;4804958;29;20191;-59
2023/06/01 08:16:39;;;;;;;8.57;6.78;;;21.20;1.00;;;;;;4805138;29;20600;-59
2023/06/01 08:19:05;;;;;;;13.73;7.53;;;21.30;1.00;;;;;;4805068;29;20068;-59
2023/06/01 08:21:31;;;;;;;17.02;7.93;;;21.40;1.00;;;;;;4804670;29;20033;-57
2023/06/01 08:23:57;;;;;;;11.13;7.70;;;21.40;1.00;;;;;;4804897;29;20055;-57
2023/06/01 08:26:23;;;;;;;8.98;6.25;;;21.60;1.00;;;;;;4805024;29;20425;-58
2023/06/01 08:28:51;;;;;;;14.35;7.63;;;21.70;99.90;;;;;;4804798;29;20054;-58
2023/06/01 08:31:21;;;;;;;16.48;7.40;;;21.80;99.90;;;;;;4804771;29;20401;-58
2023/06/01 08:33:48;;;;;;;16.13;7.00;;;21.80;99.90;;;;;;4804803;29;20043;-58
2023/06/01 08:36:14;;;;;;;12.38;6.88;;;22.00;99.90;;;;;;4804773;29;20103;-59
2023/06/01 08:38:41;;;;;;;13.02;7.28;;;22.10;99.90;;;;;;4804905;29;20018;-58
2023/06/01 08:41:40;;;;;;;16.98;7.03;;;22.10;99.90;;;;;;4804559;29;20038;-58
2023/06/01 08:44:08;;;;;;;16.73;7.20;;;22.30;99.90;;;;;;4804576;29;20038;-59
2023/06/01 08:46:36;;;;;;;13.35;7.80;;;22.50;99.90;;;;;;4804713;29;20034;-57
2023/06/01 08:49:03;;;;;;;14.43;7.70;;;22.40;99.90;;;;;;4804517;29;20030;-57
2023/06/01 08:51:33;;;;;;;13.07;6.28;;;22.40;99.90;;;;;;4804684;29;20084;-57
2023/06/01 08:54:02;;;;;;;12.38;6.38;;;22.60;99.90;;;;;;4804376;29;20058;-59
2023/06/01 08:56:28;;;;;;;13.00;7.05;;;22.60;99.90;;;;;;4804710;29;20085;-58
2023/06/01 08:58:55;;;;;;;12.43;6.43;;;22.70;99.90;;;;;;4804308;29;20031;-58
2023/06/01 09:01:23;;;;;;;11.70;6.00;;;23.00;99.90;;;;;;4804482;29;20038;-59
2023/06/01 09:03:51;;;;;;;12.45;6.75;;;23.10;65.30;;;;;;4804424;29;20031;-58
2023/06/01 09:06:17;;;;;;;7.55;6.13;;;23.30;79.70;;;;;;4804784;29;20035;-58
2023/06/01 09:08:44;;;;;;;13.57;6.38;;;23.30;21.70;;;;;;4804477;29;20395;-60
2023/06/01 09:11:09;;;;;;;13.70;6.72;;;23.20;22.30;;;;;;4804397;29;20492;-59
2023/06/01 09:13:39;;;;;;;12.77;6.65;;;23.50;45.40;;;;;;4806291;29;20066;-58
2023/06/01 09:16:06;;;;;;;8.88;5.55;;;23.60;49.00;;;;;;4803208;29;20081;-58
2023/06/01 09:18:32;;;;;;;10.80;6.05;;;23.70;11.20;;;;;;4804351;29;20027;-58
2023/06/01 09:21:24;;;;;;;13.68;7.05;;;23.70;1.00;;;;;;4803210;29;20031;-58
2023/06/01 09:23:50;;;;;;;12.65;6.28;;;23.80;1.00;;;;;;4800502;29;20054;-59
2023/06/01 09:26:17;;;;;;;13.15;6.30;;;24.10;1.00;;;;;;4804378;29;20042;-57
2023/06/01 09:28:57;;;;;;;15.10;6.32;;;24.40;1.00;;;;;;4803780;29;20030;-59
2023/06/01 09:31:45;;;;;;;15.35;6.80;;;24.30;1.00;;;;;;4804186;29;20027;-58
2023/06/01 09:34:18;;;;;;;15.15;6.22;;;24.20;1.00;;;;;;4816698;29;20023;-58
2023/06/01 09:36:44;;;;;;;12.23;6.30;;;24.50;1.00;;;;;;4825922;29;20037;-58
2023/06/01 09:39:11;;;;;;;7.80;5.97;;;24.50;1.00;;;;;;4839655;29;20272;-57
2023/06/01 09:41:53;;;;;;;13.18;5.85;;;24.80;1.00;;;;;;4825749;29;20042;-56
2023/06/01 09:44:26;;;;;;;11.45;6.32;;;24.60;1.00;;;;;;4825683;29;20034;-58
2023/06/01 09:46:56;;;;;;;13.98;5.97;;;24.80;1.00;;;;;;4816373;29;20034;-58
2023/06/01 09:49:26;;;;;;;11.10;6.07;;;25.00;1.00;;;;;;4807727;29;20043;-58
2023/06/01 09:52:07;;;;;;;13.60;6.18;;;25.10;1.00;;;;;;4807367;29;20145;-59
2023/06/01 09:54:36;;;;;;;14.65;6.63;;;25.20;1.00;;;;;;4807194;29;20031;-58
2023/06/01 09:57:03;;;;;;;14.80;6.72;;;25.00;1.00;;;;;;4807430;29;20023;-59
2023/06/01 09:59:36;;;;;;;13.32;5.63;;;25.00;1.00;;;;;;4807270;29;20034;-59
2023/06/01 10:02:03;;;;;;;17.88;6.97;;;25.00;1.00;;;;;;4807446;29;20076;-59
2023/06/01 10:04:29;;;;;;;11.15;5.60;;;25.30;1.00;;;;;;4806780;29;20556;-58
2023/06/01 10:06:56;;;;;;;18.45;5.82;;;25.60;1.00;;;;;;4807326;29;20123;-59
2023/06/01 10:09:24;;;;;;;8.75;5.68;;;25.90;1.00;;;;;;4807199;29;20039;-58
2023/06/01 10:11:56;;;;;;;8.57;5.93;;;25.70;1.00;;;;;;4807082;29;20030;-60
2023/06/01 10:14:24;;;;;;;11.48;6.80;;;25.60;1.00;;;;;;4807164;29;20057;-59
2023/06/01 10:16:52;;;;;;;8.88;5.70;;;25.70;1.00;;;;;;4806860;29;20030;-59
2023/06/01 10:19:19;;;;;;;11.00;5.63;;;25.90;1.00;;;;;;4806787;29;20027;-59
2023/06/01 10:21:45;;;;;;;9.38;5.82;;;26.20;1.00;;;;;;4806589;29;20027;-58
2023/06/01 10:24:12;;;;;;;16.77;6.15;;;26.40;99.90;;;;;;4806780;29;20142;-59
2023/06/01 10:27:08;;;;;;;8.77;5.22;;;26.20;99.90;;;;;;4806858;29;20027;-59
2023/06/01 10:29:35;;;;;;;11.88;5.65;;;26.20;99.90;;;;;;4806913;29;20108;-57
2023/06/01 10:32:01;;;;;;;10.35;5.20;;;26.20;1.00;;;;;;4806738;29;20030;-57
2023/06/01 10:34:37;;;;;;;10.77;5.25;;;26.40;99.90;;;;;;4806752;29;20045;-59
2023/06/01 10:37:03;;;;;;;13.57;5.90;;;26.30;99.90;;;;;;4805968;29;20038;-58
2023/06/01 10:39:33;;;;;;;13.45;5.57;;;26.30;99.90;;;;;;4806796;29;20031;-59
2023/06/01 10:42:19;;;;;;;10.18;5.80;;;26.60;99.90;;;;;;4806800;29;20027;-58
2023/06/01 10:44:50;;;;;;;11.30;5.47;;;26.90;99.90;;;;;;4806295;29;20035;-59
2023/06/01 10:47:17;;;;;;;10.18;5.75;;;26.90;99.90;;;;;;4806683;29;20348;-57
2023/06/01 10:49:49;;;;;;;15.40;6.00;;;26.80;99.90;;;;;;4806639;29;20467;-59
2023/06/01 10:52:35;;;;;;;8.48;5.60;;;27.20;99.90;;;;;;4806574;29;20033;-59
2023/06/01 10:55:10;;;;;;;12.85;5.28;;;27.40;99.90;;;;;;4806162;29;20039;-59
2023/06/01 10:57:43;;;;;;;8.60;4.47;;;27.50;99.90;;;;;;4806361;29;20039;-58
2023/06/01 11:00:27;;;;;;;31.05;6.05;;;27.60;99.90;;;;;;4806085;29;20383;-59
2023/06/01 11:03:04;;;;;;;10.27;5.35;;;27.90;99.90;;;;;;4806263;29;20031;-59
2023/06/01 11:05:47;;;;;;;7.28;5.10;;;27.90;99.90;;;;;;4806308;29;20146;-57
2023/06/01 11:08:22;;;;;;;9.05;5.63;;;27.60;99.90;;;;;;4806275;29;20543;-59
2023/06/01 11:10:51;;;;;;;12.60;5.35;;;27.70;99.90;;;;;;4806196;29;20031;-58
2023/06/01 11:13:22;;;;;;;11.82;6.10;;;28.00;99.90;;;;;;4806015;29;20033;-59
2023/06/01 11:18:44;;;;;;;18.90;5.72;;;27.70;99.90;;;;;;4806165;29;20034;-59
2023/06/01 11:21:16;;;;;;;15.25;5.40;;;28.00;99.90;;;;;;4805957;29;20043;-58
2023/06/01 11:23:42;;;;;;;8.38;5.60;;;28.10;99.90;;;;;;4806045;29;20039;-58
2023/06/01 11:26:08;;;;;;;9.63;5.35;;;27.70;99.90;;;;;;4805745;29;21487;-59
2023/06/01 11:28:35;;;;;;;14.63;5.28;;;27.50;99.90;;;;;;4805945;29;20039;-59
2023/06/01 11:31:02;;;;;;;8.60;5.18;;;27.80;99.90;;;;;;4805694;29;20203;-58
2023/06/01 11:33:33;;;;;;;14.52;6.82;;;28.00;99.90;;;;;;4819561;29;20513;-59
2023/06/01 11:36:05;;;;;;;10.02;5.90;;;28.10;99.90;;;;;;4805478;29;20031;-59
2023/06/01 11:38:42;;;;;;;8.63;5.25;;;27.90;99.90;;;;;;4805823;29;20383;-60
2023/06/01 11:41:08;;;;;;;14.30;5.75;;;28.50;99.90;;;;;;4805684;29;20379;-58
2023/06/01 11:43:35;;;;;;;8.63;5.53;;;28.70;99.90;;;;;;4805696;29;20042;-59
2023/06/01 11:46:06;;;;;;;8.43;4.80;;;28.50;99.90;;;;;;4805323;29;20083;-59
2023/06/01 11:48:33;;;;;;;9.98;5.32;;;28.60;99.90;;;;;;4805690;29;20027;-59
2023/06/01 11:51:00;;;;;;;9.23;5.07;;;28.50;99.90;;;;;;4805366;29;20031;-59
2023/06/01 11:53:26;;;;;;;6.18;5.30;;;28.70;99.90;;;;;;4805472;29;20030;-58
2023/06/01 11:55:54;;;;;;;7.15;4.75;;;28.90;99.90;;;;;;4805320;29;20027;-59
2023/06/01 11:58:24;;;;;;;10.48;5.28;;;29.00;99.90;;;;;;4805003;29;20023;-59
2023/06/01 12:00:50;;;;;;;7.55;4.60;;;29.00;99.90;;;;;;4805350;29;20031;-59
2023/06/01 12:03:16;;;;;;;9.10;4.97;;;29.10;99.90;;;;;;4805231;29;20033;-58
2023/06/01 12:05:45;;;;;;;12.02;5.45;;;29.40;99.90;;;;;;4805273;29;20164;-59
2023/06/01 12:08:22;;;;;;;8.27;5.20;;;29.20;99.90;;;;;;4805002;29;20053;-59
2023/06/01 12:10:50;;;;;;;7.60;4.78;;;29.60;99.90;;;;;;4805089;29;20065;-59
2023/06/01 12:13:17;;;;;;;12.13;4.30;;;30.10;99.90;;;;;;4804009;29;20599;-59
2023/06/01 12:15:43;;;;;;;8.77;3.88;;;31.20;99.90;;;;;;4805208;29;20046;-59
2023/06/01 12:18:09;;;;;;;6.32;4.63;;;31.90;99.90;;;;;;4810732;29;20492;-59
2023/06/01 12:20:41;;;;;;;11.32;4.50;;;32.30;99.90;;;;;;4814055;29;20109;-58
2023/06/01 12:23:10;;;;;;;6.80;4.57;;;32.60;99.90;;;;;;4804858;29;20541;-60
2023/06/01 12:25:36;;;;;;;12.48;5.43;;;33.20;99.90;;;;;;4805004;29;20069;-59
2023/06/01 12:28:04;;;;;;;8.80;4.45;;;33.50;99.90;;;;;;4804793;29;20042;-57
2023/06/01 12:30:30;;;;;;;9.82;4.05;;;33.50;99.90;;;;;;4805058;29;20041;-57
2023/06/01 12:32:56;;;;;;;12.98;4.55;;;33.40;99.90;;;;;;4804997;29;20026;-57
2023/06/01 12:35:24;;;;;;;7.32;4.47;;;33.80;99.90;;;;;;4804770;29;20487;-58
2023/06/01 12:38:09;;;;;;;5.38;4.22;;;33.90;99.90;;;;;;4804542;29;20026;-60
2023/06/01 12:40:38;;;;;;;7.93;4.60;;;33.70;99.90;;;;;;4804952;29;20409;-59
2023/06/01 12:43:05;;;;;;;12.20;4.45;;;33.80;99.90;;;;;;4804749;29;20027;-59
2023/06/01 12:45:37;;;;;;;5.55;4.25;;;34.00;99.90;;;;;;4804705;29;20110;-59
2023/06/01 12:48:03;;;;;;;;;;;34.40;99.90;;;;;;4805225;29;20110;-59
2023/06/01 12:50:29;;;;;;;7.82;4.13;;;34.80;99.90;;;;;;4804652;29;19992;-59
2023/06/01 12:52:54;;;;;;;15.75;4.30;;;34.60;99.90;;;;;;4804494;29;20171;-60